createdAt,value
2019-02-15T00:02:05.262Z,7.44
2019-02-15T00:07:10.639Z,7.40
2019-02-15T00:12:16.014Z,7.39
2019-02-15T00:17:30.032Z,7.49
2019-02-15T00:22:35.484Z,7.61
2019-02-15T00:27:40.946Z,7.57
2019-02-15T00:32:46.469Z,7.56
2019-02-15T00:37:52.055Z,7.55
2019-02-15T00:42:57.508Z,7.57
2019-02-15T00:48:07.929Z,7.61
2019-02-15T00:53:20.383Z,7.71
2019-02-15T00:58:37.264Z,7.76
2019-02-15T01:03:52.165Z,7.73
2019-02-15T01:09:16.443Z,7.71
2019-02-15T01:14:22.064Z,7.72
2019-02-15T01:19:27.508Z,7.70
2019-02-15T01:24:33.046Z,7.62
2019-02-15T01:29:57.087Z,7.62
2019-02-15T01:35:11.114Z,7.59
2019-02-15T01:40:25.211Z,7.59
2019-02-15T01:45:34.595Z,7.55
2019-02-15T01:50:39.926Z,7.49
2019-02-15T01:55:45.467Z,7.41
2019-02-15T02:00:50.973Z,7.39
2019-02-15T02:05:56.553Z,7.33
2019-02-15T02:11:01.957Z,7.28
2019-02-15T02:16:07.378Z,7.28
2019-02-15T02:21:12.842Z,7.23
2019-02-15T02:26:18.232Z,7.24
2019-02-15T02:31:23.689Z,7.31
2019-02-15T02:36:46.261Z,7.47
2019-02-15T02:41:51.925Z,7.68
2019-02-15T02:46:57.450Z,7.82
2019-02-15T02:52:02.871Z,7.96
2019-02-15T02:57:08.410Z,8.12
2019-02-15T03:02:13.752Z,8.31
2019-02-15T03:07:19.289Z,8.46
2019-02-15T03:12:26.576Z,8.61
2019-02-15T03:17:32.227Z,8.71
2019-02-15T03:22:37.753Z,8.76
2019-02-15T03:27:43.239Z,8.66
2019-02-15T03:32:48.741Z,8.59
2019-02-15T03:38:00.417Z,8.51
2019-02-15T03:43:05.919Z,8.52
2019-02-15T03:48:11.421Z,8.46
2019-02-15T03:53:16.765Z,8.44
2019-02-15T03:58:22.426Z,8.40
2019-02-15T04:03:27.871Z,8.45
2019-02-15T04:08:33.308Z,8.42
2019-02-15T04:13:38.769Z,8.39
2019-02-15T04:18:46.025Z,8.41
2019-02-15T04:23:51.439Z,8.51
2019-02-15T04:28:56.919Z,8.53
2019-02-15T04:34:02.352Z,8.58
2019-02-15T04:39:07.907Z,8.64
2019-02-15T04:44:13.352Z,8.72
2019-02-15T04:49:18.826Z,8.73
2019-02-15T04:54:24.499Z,8.70
2019-02-15T04:59:29.934Z,8.83
2019-02-15T05:04:35.309Z,8.88
2019-02-15T05:09:40.757Z,8.86
2019-02-15T05:14:52.820Z,8.87
2019-02-15T05:19:53.431Z,8.90
2019-02-15T05:24:59.943Z,8.90
2019-02-15T05:30:05.658Z,8.88
2019-02-15T05:35:11.181Z,8.83
2019-02-15T05:40:16.735Z,8.83
2019-02-15T05:45:22.863Z,8.91
2019-02-15T05:50:28.466Z,8.96
2019-02-15T05:55:33.927Z,8.94
2019-02-15T06:00:39.353Z,8.88
2019-02-15T06:05:44.762Z,8.88
2019-02-15T06:10:50.192Z,8.95
2019-02-15T06:15:55.654Z,8.99
2019-02-15T06:21:01.148Z,8.98
2019-02-15T06:26:06.568Z,8.96
2019-02-15T06:31:13.221Z,8.98
2019-02-15T06:36:18.872Z,9.05
2019-02-15T06:41:24.461Z,9.05
2019-02-15T06:46:29.998Z,9.07
2019-02-15T06:51:35.512Z,9.09
2019-02-15T06:56:40.993Z,9.11
2019-02-15T07:01:53.040Z,9.10
2019-02-15T07:06:58.695Z,9.10
2019-02-15T07:12:04.263Z,9.15
2019-02-15T07:17:09.602Z,9.16
2019-02-15T07:22:16.853Z,9.24
2019-02-15T07:27:22.256Z,9.26
2019-02-15T07:32:27.780Z,9.23
2019-02-15T07:37:33.283Z,9.23
2019-02-15T07:42:38.791Z,9.21
2019-02-15T07:47:44.347Z,9.20
2019-02-15T07:52:49.749Z,9.18
2019-02-15T07:57:55.189Z,9.14
2019-02-15T08:03:03.222Z,9.13
2019-02-15T08:08:08.613Z,9.11
2019-02-15T08:13:16.291Z,9.06
2019-02-15T08:18:21.698Z,9.01
2019-02-15T08:23:27.149Z,8.99
2019-02-15T08:28:32.635Z,9.00
2019-02-15T08:33:38.283Z,9.05
2019-02-15T08:38:43.800Z,9.14
2019-02-15T08:43:50.199Z,9.24
2019-02-15T08:48:57.690Z,9.28
2019-02-15T08:54:03.106Z,9.40
2019-02-15T08:59:08.646Z,9.50
2019-02-15T09:04:14.236Z,9.59
2019-02-15T09:09:19.680Z,9.64
2019-02-15T09:14:25.430Z,9.74
2019-02-15T09:19:31.857Z,9.83
2019-02-15T09:24:37.433Z,9.92
2019-02-15T09:29:42.928Z,9.99
2019-02-15T09:34:48.475Z,10.05
2019-02-15T09:39:54.255Z,10.07
2019-02-15T09:45:00.787Z,10.14
2019-02-15T09:50:08.046Z,10.16
2019-02-15T09:55:14.477Z,10.22
2019-02-15T10:00:19.900Z,10.30
2019-02-15T10:05:26.480Z,10.49
2019-02-15T10:10:32.080Z,10.57
2019-02-15T10:15:37.703Z,10.67
2019-02-15T10:20:43.250Z,10.93
2019-02-15T10:25:48.927Z,11.02
2019-02-15T10:30:54.636Z,11.11
2019-02-15T10:36:00.222Z,11.13
2019-02-15T10:41:06.144Z,11.28
2019-02-15T10:46:11.780Z,11.29
2019-02-15T10:51:18.365Z,11.23
2019-02-15T10:56:24.041Z,11.33
2019-02-15T11:01:29.821Z,11.37
2019-02-15T11:06:35.662Z,11.59
2019-02-15T11:11:41.166Z,11.45
2019-02-15T11:16:47.606Z,11.61
2019-02-15T11:21:53.380Z,11.90
2019-02-15T11:27:01.000Z,11.90
2019-02-15T11:32:06.803Z,11.83
2019-02-15T11:37:15.423Z,11.75
2019-02-15T11:42:21.223Z,11.89
2019-02-15T11:47:27.240Z,11.92
2019-02-15T11:52:35.360Z,11.77
2019-02-15T11:57:40.824Z,11.59
2019-02-15T12:02:46.380Z,11.83
2019-02-15T12:07:51.962Z,12.21
2019-02-15T12:12:57.610Z,12.63
2019-02-15T12:18:03.245Z,13.04
2019-02-15T12:23:11.764Z,13.46
2019-02-15T12:28:17.321Z,13.52
2019-02-15T12:33:23.100Z,13.34
2019-02-15T12:38:28.780Z,13.61
2019-02-15T12:43:37.179Z,14.25
2019-02-15T12:48:42.803Z,14.57
2019-02-15T12:53:48.423Z,14.49
2019-02-15T12:58:55.384Z,14.38
2019-02-15T13:04:01.444Z,14.47
2019-02-15T13:09:07.921Z,14.03
2019-02-15T13:14:13.700Z,14.07
2019-02-15T13:19:19.543Z,14.11
2019-02-15T13:24:25.101Z,14.23
2019-02-15T13:29:30.891Z,14.08
2019-02-15T13:34:38.030Z,14.16
2019-02-15T13:39:43.535Z,14.20
2019-02-15T13:44:49.220Z,13.98
2019-02-15T13:49:54.708Z,14.27
2019-02-15T13:55:00.328Z,14.26
2019-02-15T14:00:09.081Z,14.13
2019-02-15T14:05:14.865Z,14.13
2019-02-15T14:10:20.521Z,14.31
2019-02-15T14:15:26.621Z,14.45
2019-02-15T14:20:32.483Z,14.19
2019-02-15T14:25:38.141Z,14.18
2019-02-15T14:30:43.683Z,14.28
2019-02-15T14:35:49.248Z,13.92
2019-02-15T14:40:54.866Z,13.62
2019-02-15T14:46:00.383Z,13.52
2019-02-15T14:51:06.199Z,13.32
2019-02-15T14:56:11.920Z,13.30
2019-02-15T15:01:17.553Z,13.20
2019-02-15T15:06:23.264Z,13.21
2019-02-15T15:11:29.021Z,13.23
2019-02-15T15:16:34.881Z,13.00
2019-02-15T15:21:40.663Z,12.97
2019-02-15T15:26:46.266Z,12.92
2019-02-15T15:31:52.161Z,12.86
2019-02-15T15:36:57.838Z,12.89
2019-02-15T15:42:03.623Z,12.84
2019-02-15T15:47:09.241Z,12.67
2019-02-15T15:52:16.520Z,12.46
2019-02-15T15:57:22.103Z,12.14
2019-02-15T16:02:27.823Z,11.93
2019-02-15T16:07:33.479Z,11.70
2019-02-15T16:12:39.213Z,11.61
2019-02-15T16:17:45.263Z,11.50
2019-02-15T16:22:51.803Z,11.46
2019-02-15T16:27:57.502Z,11.31
2019-02-15T16:33:03.063Z,11.20
2019-02-15T16:38:08.549Z,11.12
2019-02-15T16:43:14.403Z,11.16
2019-02-15T16:48:22.292Z,11.16
2019-02-15T16:53:28.141Z,11.06
2019-02-15T16:58:33.721Z,11.00
2019-02-15T17:03:40.703Z,10.97
2019-02-15T17:08:46.283Z,10.93
2019-02-15T17:13:54.893Z,10.84
2019-02-15T17:19:00.371Z,10.76
2019-02-15T17:24:06.386Z,10.72
2019-02-15T17:29:12.179Z,10.65
2019-02-15T17:34:17.800Z,10.57
2019-02-15T17:39:23.442Z,10.48
2019-02-15T17:44:29.039Z,10.45
2019-02-15T17:49:34.701Z,10.42
2019-02-15T17:54:40.463Z,10.36
2019-02-15T17:59:46.522Z,10.31
2019-02-15T18:04:52.142Z,10.23
2019-02-15T18:09:59.624Z,10.21
2019-02-15T18:15:05.660Z,10.28
2019-02-15T18:20:11.415Z,10.24
2019-02-15T18:25:17.142Z,10.24
2019-02-15T18:30:22.903Z,10.35
2019-02-15T18:35:28.441Z,10.51
2019-02-15T18:40:34.062Z,10.64
2019-02-15T18:45:39.559Z,10.76
2019-02-15T18:50:45.300Z,10.85
2019-02-15T18:55:50.981Z,10.88
2019-02-15T19:00:56.440Z,10.90
2019-02-15T19:06:01.895Z,10.92
2019-02-15T19:11:07.411Z,10.98
2019-02-15T19:16:12.980Z,11.00
2019-02-15T19:21:18.457Z,11.00
2019-02-15T19:26:23.996Z,10.98
2019-02-15T19:31:29.506Z,11.00
2019-02-15T19:36:35.130Z,11.02
2019-02-15T19:41:41.954Z,11.05
2019-02-15T19:46:47.424Z,11.07
2019-02-15T19:51:52.966Z,11.11
2019-02-15T19:56:58.363Z,11.11
2019-02-15T20:02:04.932Z,11.09
2019-02-15T20:07:10.354Z,11.07
2019-02-15T20:12:15.750Z,11.18
2019-02-15T20:17:22.223Z,11.15
2019-02-15T20:22:27.711Z,11.20
2019-02-15T20:27:33.059Z,11.23
2019-02-15T20:32:38.792Z,11.24
2019-02-15T20:37:44.195Z,11.23
2019-02-15T20:42:52.960Z,11.25
2019-02-15T20:47:58.432Z,11.39
2019-02-15T20:53:04.012Z,11.38
2019-02-15T20:58:09.419Z,11.39
2019-02-15T21:03:14.921Z,11.42
2019-02-15T21:08:20.420Z,11.47
2019-02-15T21:13:26.026Z,11.49
2019-02-15T21:18:31.481Z,11.50
2019-02-15T21:23:38.031Z,11.47
2019-02-15T21:28:43.379Z,11.46
2019-02-15T21:33:49.056Z,11.46
2019-02-15T21:38:54.535Z,11.45
2019-02-15T21:43:59.949Z,11.46
2019-02-15T21:49:05.447Z,11.41
2019-02-15T21:54:10.994Z,11.45
2019-02-15T21:59:16.507Z,11.56
2019-02-15T22:04:21.902Z,11.57
2019-02-15T22:09:27.589Z,11.54
2019-02-15T22:14:33.121Z,11.52
2019-02-15T22:19:38.657Z,11.56
2019-02-15T22:24:44.135Z,11.53
2019-02-15T22:29:49.631Z,11.53
2019-02-15T22:34:55.198Z,11.47
2019-02-15T22:40:21.397Z,11.52
2019-02-15T22:45:26.861Z,11.52
2019-02-15T22:50:36.124Z,11.46
2019-02-15T22:55:39.723Z,11.44
2019-02-15T23:01:00.239Z,11.42
2019-02-15T23:06:08.115Z,11.38
2019-02-15T23:11:14.011Z,11.29
2019-02-15T23:16:22.550Z,11.24
2019-02-15T23:21:28.106Z,11.24
2019-02-15T23:26:33.598Z,11.23
2019-02-15T23:31:39.031Z,11.17
2019-02-15T23:36:44.569Z,11.14
2019-02-15T23:41:49.890Z,11.10
2019-02-15T23:46:55.309Z,11.18
2019-02-15T23:52:01.108Z,11.28
2019-02-15T23:57:06.683Z,11.26
